Normangee, TX (77871)

10:06 PM CST on February 19, 2017 (GMT -0600)
Lazy R Ranch | | Change Station

Elev 479 ft 31.14 °N, 96.10 °W | Updated 9 seconds ago

Mostly Cloudy
Mostly Cloudy
70.9 °F
Feels Like 70.9 °F
N
3.0
Wind Variable Wind from SSE

Today
High -- | Low -- °F
--% Chance of Precip.
Yesterday
High -- | Low -- °F
Precip. -- in
Pressure 29.88 in
Visibility 10.0 miles
Clouds Scattered Clouds 1400 ft
Mostly Cloudy 2100 ft
Overcast 2800 ft
Dew Point 66 °F
Humidity 86%
Rainfall 0.00 in
Snow Depth Not available.
7:01 AM 6:15 PM
Last Quarter, 37% visible
METAR KCFD 200355Z AUTO 12012KT 10SM SCT014 BKN021 OVC028 21/20 A2988 RMK AO2 T02110200
Pressure 29.88 in
Visibility 10.0 miles
Clouds Scattered Clouds 1400 ft
Mostly Cloudy 2100 ft
Overcast 2800 ft
Dew Point 66 °F
Humidity 86%
Rainfall 0.00 in
Snow Depth Not available.
7:01 AM 6:15 PM
Last Quarter, 37% visible
METAR KCFD 200355Z AUTO 12012KT 10SM SCT014 BKN021 OVC028 21/20 A2988 RMK AO2 T02110200

Get Your Daily Forecast Email!

Thanks for signing up!

Be on the lookout for a verification email in your inbox.

You'll start receiving the daily forecast at 8 AM.

×

10-Day Weather Forecast

Almanac

Astronomy

Feb. 19, 2017 Rise Set
Actual Time
Civil Twilight
Nautical Twilight
Astronomical Twilight
Moon
Length of Visible Light
Length of Day
Tomorrow will be .
, % of the Moon is Illuminated

Today's Extremes

State Highs State Lows

Community

WunderPhotos

Upload Photos

1,962,540 photos uploaded!

WunderBlog® & News

Nearby

Air Quality

  Air Quality AQ Index Pollutant
Not available.

Snow Depth

Station Depth Elevation

Earthquake Activity

City Distance Mag. Time & Date
Minimum magnitude displayed is 2.5.

Coastal Water Temperatures

Place Temperature

Stations

Nearby Weather Stations

Station Location Temp. Windchill Dew Point Humidity Wind Precip. Elev Updated Type
                   

Watches & Warnings

There are currently no watches in effect.